Hoogstraten, Belgium
Current Conditions -  °F | °C
As of 6:55 AM on Tuesday 27 Jan 2015 (Local Time) from EHGR Reporting Station
Broken Clouds Broken Clouds  
Wind Chill: 31°   Ceiling: 10000
Heat Index: 36°   Visibility: 6mi
Dew Point: 34°   Wind: 6mph
Humidity: 93%   Direction: 240°WSW
Pressure: 30.21"   Gusts: NA
Location:  51.4°N, 4.76°E
Report Text: EHGR 270555Z AUTO 24005KT 9999 SCT018 BKN100 02/01 Q1023 WHT
Loading
Personal Weather Stations






























Interactive Weather Map New forecast layout! Learn more

10-Day Weather Forecast

Advertisements
Track Severe Weather on mobile